sensor_id;sensor_type;location;lat;lon;timestamp;P1;durP1;ratioP1;P2;durP2;ratioP2
48623;SDS011;34422;45.802;16.114;2022-12-01T00:01:09;18.20;;;10.60;;
48623;SDS011;34422;45.802;16.114;2022-12-01T00:03:36;18.35;;;10.48;;
48623;SDS011;34422;45.802;16.114;2022-12-01T00:06:04;18.65;;;11.32;;
48623;SDS011;34422;45.802;16.114;2022-12-01T00:08:32;18.50;;;10.73;;
48623;SDS011;34422;45.802;16.114;2022-12-01T00:11:07;19.33;;;11.50;;
48623;SDS011;34422;45.802;16.114;2022-12-01T00:13:35;18.33;;;11.05;;
48623;SDS011;34422;45.802;16.114;2022-12-01T00:16:12;18.38;;;11.10;;
48623;SDS011;34422;45.802;16.114;2022-12-01T00:18:41;17.33;;;10.70;;
48623;SDS011;34422;45.802;16.114;2022-12-01T00:21:14;18.38;;;10.35;;
48623;SDS011;34422;45.802;16.114;2022-12-01T00:23:43;20.10;;;11.68;;
48623;SDS011;34422;45.802;16.114;2022-12-01T00:26:11;18.25;;;10.65;;
48623;SDS011;34422;45.802;16.114;2022-12-01T00:28:38;19.13;;;10.88;;
48623;SDS011;34422;45.802;16.114;2022-12-01T00:31:06;23.58;;;11.73;;
48623;SDS011;34422;45.802;16.114;2022-12-01T00:33:33;18.55;;;10.93;;
48623;SDS011;34422;45.802;16.114;2022-12-01T00:36:00;18.30;;;10.52;;
48623;SDS011;34422;45.802;16.114;2022-12-01T00:38:27;18.35;;;10.45;;
48623;SDS011;34422;45.802;16.114;2022-12-01T00:40:54;20.98;;;11.40;;
48623;SDS011;34422;45.802;16.114;2022-12-01T00:43:21;18.05;;;11.05;;
48623;SDS011;34422;45.802;16.114;2022-12-01T00:45:48;19.33;;;10.95;;
48623;SDS011;34422;45.802;16.114;2022-12-01T00:48:15;21.45;;;12.32;;
48623;SDS011;34422;45.802;16.114;2022-12-01T00:50:42;18.13;;;11.23;;
48623;SDS011;34422;45.802;16.114;2022-12-01T00:53:09;18.73;;;11.00;;
48623;SDS011;34422;45.802;16.114;2022-12-01T00:55:36;20.17;;;11.35;;
48623;SDS011;34422;45.802;16.114;2022-12-01T00:58:03;17.50;;;11.02;;
48623;SDS011;34422;45.802;16.114;2022-12-01T01:00:30;19.13;;;11.30;;
48623;SDS011;34422;45.802;16.114;2022-12-01T01:02:57;19.58;;;11.63;;
48623;SDS011;34422;45.802;16.114;2022-12-01T01:05:23;19.88;;;11.05;;
48623;SDS011;34422;45.802;16.114;2022-12-01T01:07:50;19.42;;;11.15;;
48623;SDS011;34422;45.802;16.114;2022-12-01T01:10:17;19.35;;;11.68;;
48623;SDS011;34422;45.802;16.114;2022-12-01T01:12:44;19.60;;;11.52;;
48623;SDS011;34422;45.802;16.114;2022-12-01T01:15:10;17.92;;;10.90;;
48623;SDS011;34422;45.802;16.114;2022-12-01T01:17:37;18.17;;;11.57;;
48623;SDS011;34422;45.802;16.114;2022-12-01T01:20:04;18.85;;;11.02;;
48623;SDS011;34422;45.802;16.114;2022-12-01T01:22:33;20.67;;;10.98;;
48623;SDS011;34422;45.802;16.114;2022-12-01T01:25:00;21.27;;;11.77;;
48623;SDS011;34422;45.802;16.114;2022-12-01T01:27:27;18.70;;;11.30;;
48623;SDS011;34422;45.802;16.114;2022-12-01T01:29:54;20.20;;;11.15;;
48623;SDS011;34422;45.802;16.114;2022-12-01T01:32:21;22.58;;;12.70;;
48623;SDS011;34422;45.802;16.114;2022-12-01T01:34:47;21.35;;;12.57;;
48623;SDS011;34422;45.802;16.114;2022-12-01T01:37:14;19.98;;;11.77;;
48623;SDS011;34422;45.802;16.114;2022-12-01T01:39:41;20.60;;;12.38;;
48623;SDS011;34422;45.802;16.114;2022-12-01T01:42:10;20.48;;;11.93;;
48623;SDS011;34422;45.802;16.114;2022-12-01T01:44:46;19.83;;;11.65;;
48623;SDS011;34422;45.802;16.114;2022-12-01T01:47:25;21.35;;;11.60;;
48623;SDS011;34422;45.802;16.114;2022-12-01T01:49:55;21.10;;;12.18;;
48623;SDS011;34422;45.802;16.114;2022-12-01T01:52:24;22.38;;;12.23;;
48623;SDS011;34422;45.802;16.114;2022-12-01T01:54:53;21.83;;;12.13;;
48623;SDS011;34422;45.802;16.114;2022-12-01T01:57:27;19.77;;;12.07;;
48623;SDS011;34422;45.802;16.114;2022-12-01T01:59:58;21.33;;;11.90;;
48623;SDS011;34422;45.802;16.114;2022-12-01T02:02:29;17.55;;;10.52;;
48623;SDS011;34422;45.802;16.114;2022-12-01T02:04:59;22.40;;;11.98;;
48623;SDS011;34422;45.802;16.114;2022-12-01T02:07:27;20.70;;;11.52;;
48623;SDS011;34422;45.802;16.114;2022-12-01T02:09:54;18.40;;;10.23;;
48623;SDS011;34422;45.802;16.114;2022-12-01T02:18:14;16.02;;;9.45;;
48623;SDS011;34422;45.802;16.114;2022-12-01T02:32:42;16.42;;;9.35;;
48623;SDS011;34422;45.802;16.114;2022-12-01T02:37:59;15.80;;;8.85;;
48623;SDS011;34422;45.802;16.114;2022-12-01T02:48:45;14.25;;;8.80;;
48623;SDS011;34422;45.802;16.114;2022-12-01T02:51:16;17.65;;;9.90;;
48623;SDS011;34422;45.802;16.114;2022-12-01T02:53:48;18.50;;;10.23;;
48623;SDS011;34422;45.802;16.114;2022-12-01T02:56:18;16.20;;;9.20;;
48623;SDS011;34422;45.802;16.114;2022-12-01T02:58:46;16.73;;;9.30;;
48623;SDS011;34422;45.802;16.114;2022-12-01T03:03:58;17.50;;;9.68;;
48623;SDS011;34422;45.802;16.114;2022-12-01T03:06:44;16.80;;;9.27;;
48623;SDS011;34422;45.802;16.114;2022-12-01T03:09:40;15.25;;;8.50;;
48623;SDS011;34422;45.802;16.114;2022-12-01T03:12:43;14.38;;;8.57;;
48623;SDS011;34422;45.802;16.114;2022-12-01T03:18:08;14.88;;;7.93;;
48623;SDS011;34422;45.802;16.114;2022-12-01T03:21:05;13.95;;;7.78;;
48623;SDS011;34422;45.802;16.114;2022-12-01T03:23:40;16.13;;;8.95;;
48623;SDS011;34422;45.802;16.114;2022-12-01T03:26:10;11.23;;;6.82;;
48623;SDS011;34422;45.802;16.114;2022-12-01T03:28:43;14.48;;;8.77;;
48623;SDS011;34422;45.802;16.114;2022-12-01T03:31:15;14.25;;;8.15;;
48623;SDS011;34422;45.802;16.114;2022-12-01T03:33:48;15.25;;;8.32;;
48623;SDS011;34422;45.802;16.114;2022-12-01T03:36:24;13.68;;;7.95;;
48623;SDS011;34422;45.802;16.114;2022-12-01T03:38:57;14.48;;;8.00;;
48623;SDS011;34422;45.802;16.114;2022-12-01T03:41:29;14.05;;;8.40;;
48623;SDS011;34422;45.802;16.114;2022-12-01T03:44:03;16.05;;;8.30;;
48623;SDS011;34422;45.802;16.114;2022-12-01T03:46:40;15.30;;;8.50;;
48623;SDS011;34422;45.802;16.114;2022-12-01T03:49:12;15.43;;;9.07;;
48623;SDS011;34422;45.802;16.114;2022-12-01T03:51:50;18.33;;;9.23;;
48623;SDS011;34422;45.802;16.114;2022-12-01T03:57:25;15.07;;;8.70;;
48623;SDS011;34422;45.802;16.114;2022-12-01T03:59:56;16.08;;;9.32;;
48623;SDS011;34422;45.802;16.114;2022-12-01T04:02:23;14.50;;;8.60;;
48623;SDS011;34422;45.802;16.114;2022-12-01T04:04:53;15.85;;;8.93;;
48623;SDS011;34422;45.802;16.114;2022-12-01T04:07:20;16.02;;;9.38;;
48623;SDS011;34422;45.802;16.114;2022-12-01T04:09:48;15.90;;;10.00;;
48623;SDS011;34422;45.802;16.114;2022-12-01T04:12:15;17.05;;;9.20;;
48623;SDS011;34422;45.802;16.114;2022-12-01T04:14:59;21.48;;;11.30;;
48623;SDS011;34422;45.802;16.114;2022-12-01T04:17:28;17.75;;;10.48;;
48623;SDS011;34422;45.802;16.114;2022-12-01T04:19:55;19.38;;;10.75;;
48623;SDS011;34422;45.802;16.114;2022-12-01T04:22:22;18.95;;;10.30;;
48623;SDS011;34422;45.802;16.114;2022-12-01T04:24:49;19.08;;;11.45;;
48623;SDS011;34422;45.802;16.114;2022-12-01T04:27:16;17.35;;;10.68;;
48623;SDS011;34422;45.802;16.114;2022-12-01T04:29:44;20.95;;;11.35;;
48623;SDS011;34422;45.802;16.114;2022-12-01T04:32:11;20.77;;;11.27;;
48623;SDS011;34422;45.802;16.114;2022-12-01T04:34:38;20.70;;;11.00;;
48623;SDS011;34422;45.802;16.114;2022-12-01T04:37:06;21.27;;;11.45;;
48623;SDS011;34422;45.802;16.114;2022-12-01T04:39:33;18.33;;;10.25;;
48623;SDS011;34422;45.802;16.114;2022-12-01T04:42:00;20.38;;;11.55;;
48623;SDS011;34422;45.802;16.114;2022-12-01T04:44:27;20.52;;;11.25;;
48623;SDS011;34422;45.802;16.114;2022-12-01T04:46:54;22.85;;;12.68;;
48623;SDS011;34422;45.802;16.114;2022-12-01T04:49:21;25.80;;;14.10;;
48623;SDS011;34422;45.802;16.114;2022-12-01T04:51:48;26.45;;;12.98;;
48623;SDS011;34422;45.802;16.114;2022-12-01T04:54:15;21.98;;;13.00;;
48623;SDS011;34422;45.802;16.114;2022-12-01T04:56:42;21.77;;;12.13;;
48623;SDS011;34422;45.802;16.114;2022-12-01T04:59:10;24.30;;;13.82;;
48623;SDS011;34422;45.802;16.114;2022-12-01T05:01:37;25.48;;;14.75;;
48623;SDS011;34422;45.802;16.114;2022-12-01T05:04:09;24.90;;;13.55;;
48623;SDS011;34422;45.802;16.114;2022-12-01T05:06:37;24.33;;;13.05;;
48623;SDS011;34422;45.802;16.114;2022-12-01T05:09:04;25.63;;;14.57;;
48623;SDS011;34422;45.802;16.114;2022-12-01T05:11:32;20.88;;;12.95;;
48623;SDS011;34422;45.802;16.114;2022-12-01T05:13:59;23.90;;;13.70;;
48623;SDS011;34422;45.802;16.114;2022-12-01T05:16:27;24.83;;;13.55;;
48623;SDS011;34422;45.802;16.114;2022-12-01T05:18:58;27.38;;;14.20;;
48623;SDS011;34422;45.802;16.114;2022-12-01T05:21:46;26.33;;;14.13;;
48623;SDS011;34422;45.802;16.114;2022-12-01T05:24:14;28.08;;;14.70;;
48623;SDS011;34422;45.802;16.114;2022-12-01T05:26:42;26.80;;;13.23;;
48623;SDS011;34422;45.802;16.114;2022-12-01T05:29:10;24.30;;;14.57;;
48623;SDS011;34422;45.802;16.114;2022-12-01T05:31:38;24.85;;;14.57;;
48623;SDS011;34422;45.802;16.114;2022-12-01T05:34:05;23.90;;;13.43;;
48623;SDS011;34422;45.802;16.114;2022-12-01T05:36:33;25.67;;;13.77;;
48623;SDS011;34422;45.802;16.114;2022-12-01T05:38:59;23.55;;;13.57;;
48623;SDS011;34422;45.802;16.114;2022-12-01T05:41:26;24.50;;;14.45;;
48623;SDS011;34422;45.802;16.114;2022-12-01T05:43:53;24.55;;;13.10;;
48623;SDS011;34422;45.802;16.114;2022-12-01T05:46:21;23.73;;;13.23;;
48623;SDS011;34422;45.802;16.114;2022-12-01T05:48:47;27.70;;;14.25;;
48623;SDS011;34422;45.802;16.114;2022-12-01T05:51:14;24.58;;;13.60;;
48623;SDS011;34422;45.802;16.114;2022-12-01T05:53:42;20.15;;;11.70;;
48623;SDS011;34422;45.802;16.114;2022-12-01T05:56:10;23.77;;;13.25;;
48623;SDS011;34422;45.802;16.114;2022-12-01T05:58:36;21.75;;;12.77;;
48623;SDS011;34422;45.802;16.114;2022-12-01T06:01:03;23.30;;;12.43;;
48623;SDS011;34422;45.802;16.114;2022-12-01T06:03:30;24.45;;;13.18;;
48623;SDS011;34422;45.802;16.114;2022-12-01T06:05:58;24.70;;;12.73;;
48623;SDS011;34422;45.802;16.114;2022-12-01T06:08:25;26.92;;;15.30;;
48623;SDS011;34422;45.802;16.114;2022-12-01T06:10:51;23.15;;;13.27;;
48623;SDS011;34422;45.802;16.114;2022-12-01T06:13:18;21.73;;;11.88;;
48623;SDS011;34422;45.802;16.114;2022-12-01T06:15:53;20.30;;;11.57;;
48623;SDS011;34422;45.802;16.114;2022-12-01T06:18:23;24.27;;;12.93;;
48623;SDS011;34422;45.802;16.114;2022-12-01T06:20:51;23.60;;;12.68;;
48623;SDS011;34422;45.802;16.114;2022-12-01T06:23:19;21.40;;;12.40;;
48623;SDS011;34422;45.802;16.114;2022-12-01T06:25:45;20.90;;;12.00;;
48623;SDS011;34422;45.802;16.114;2022-12-01T06:28:12;22.45;;;12.38;;
48623;SDS011;34422;45.802;16.114;2022-12-01T06:30:39;21.98;;;12.05;;
48623;SDS011;34422;45.802;16.114;2022-12-01T06:33:06;19.63;;;12.18;;
48623;SDS011;34422;45.802;16.114;2022-12-01T06:35:33;19.85;;;12.02;;
48623;SDS011;34422;45.802;16.114;2022-12-01T06:38:01;23.77;;;12.43;;
48623;SDS011;34422;45.802;16.114;2022-12-01T06:40:28;23.92;;;12.88;;
48623;SDS011;34422;45.802;16.114;2022-12-01T06:42:58;21.08;;;12.77;;
48623;SDS011;34422;45.802;16.114;2022-12-01T06:47:54;21.48;;;12.75;;
48623;SDS011;34422;45.802;16.114;2022-12-01T06:50:22;22.83;;;12.98;;
48623;SDS011;34422;45.802;16.114;2022-12-01T06:52:50;24.50;;;12.93;;
48623;SDS011;34422;45.802;16.114;2022-12-01T06:55:18;21.42;;;12.30;;
48623;SDS011;34422;45.802;16.114;2022-12-01T06:57:45;29.23;;;14.15;;
48623;SDS011;34422;45.802;16.114;2022-12-01T07:00:12;25.88;;;13.02;;
48623;SDS011;34422;45.802;16.114;2022-12-01T07:02:39;24.35;;;13.93;;
48623;SDS011;34422;45.802;16.114;2022-12-01T07:05:06;27.20;;;14.10;;
48623;SDS011;34422;45.802;16.114;2022-12-01T07:07:34;25.98;;;14.82;;
48623;SDS011;34422;45.802;16.114;2022-12-01T07:10:05;30.80;;;15.17;;
48623;SDS011;34422;45.802;16.114;2022-12-01T07:12:33;25.50;;;14.05;;
48623;SDS011;34422;45.802;16.114;2022-12-01T07:15:00;27.85;;;14.95;;
48623;SDS011;34422;45.802;16.114;2022-12-01T07:17:27;29.15;;;14.90;;
48623;SDS011;34422;45.802;16.114;2022-12-01T07:19:55;30.60;;;14.55;;
48623;SDS011;34422;45.802;16.114;2022-12-01T07:22:22;28.83;;;16.75;;
48623;SDS011;34422;45.802;16.114;2022-12-01T07:24:49;28.85;;;14.68;;
48623;SDS011;34422;45.802;16.114;2022-12-01T07:27:16;29.58;;;16.48;;
48623;SDS011;34422;45.802;16.114;2022-12-01T07:29:42;27.90;;;15.95;;
48623;SDS011;34422;45.802;16.114;2022-12-01T07:32:09;25.23;;;14.52;;
48623;SDS011;34422;45.802;16.114;2022-12-01T07:34:36;27.42;;;15.68;;
48623;SDS011;34422;45.802;16.114;2022-12-01T07:37:03;32.00;;;15.27;;
48623;SDS011;34422;45.802;16.114;2022-12-01T07:39:29;23.83;;;14.13;;
48623;SDS011;34422;45.802;16.114;2022-12-01T07:41:56;28.25;;;16.23;;
48623;SDS011;34422;45.802;16.114;2022-12-01T07:44:23;26.73;;;15.70;;
48623;SDS011;34422;45.802;16.114;2022-12-01T07:46:49;26.00;;;15.07;;
48623;SDS011;34422;45.802;16.114;2022-12-01T07:49:16;30.05;;;16.60;;
48623;SDS011;34422;45.802;16.114;2022-12-01T07:51:43;28.92;;;16.73;;
48623;SDS011;34422;45.802;16.114;2022-12-01T07:54:10;31.02;;;18.08;;
48623;SDS011;34422;45.802;16.114;2022-12-01T07:56:39;30.20;;;16.98;;
48623;SDS011;34422;45.802;16.114;2022-12-01T07:59:06;26.73;;;14.98;;
48623;SDS011;34422;45.802;16.114;2022-12-01T08:01:33;27.13;;;16.00;;
48623;SDS011;34422;45.802;16.114;2022-12-01T08:04:00;29.02;;;16.55;;
48623;SDS011;34422;45.802;16.114;2022-12-01T08:06:27;31.65;;;17.13;;
48623;SDS011;34422;45.802;16.114;2022-12-01T08:08:54;29.80;;;16.30;;
48623;SDS011;34422;45.802;16.114;2022-12-01T08:11:22;28.70;;;16.48;;
48623;SDS011;34422;45.802;16.114;2022-12-01T08:13:51;28.13;;;16.52;;
48623;SDS011;34422;45.802;16.114;2022-12-01T08:16:20;29.25;;;17.08;;
48623;SDS011;34422;45.802;16.114;2022-12-01T08:18:48;27.95;;;15.57;;
48623;SDS011;34422;45.802;16.114;2022-12-01T08:21:16;28.33;;;16.15;;
48623;SDS011;34422;45.802;16.114;2022-12-01T08:23:44;31.45;;;15.80;;
48623;SDS011;34422;45.802;16.114;2022-12-01T08:26:13;25.80;;;14.90;;
48623;SDS011;34422;45.802;16.114;2022-12-01T08:28:44;27.70;;;15.88;;
48623;SDS011;34422;45.802;16.114;2022-12-01T08:31:13;34.83;;;20.13;;
48623;SDS011;34422;45.802;16.114;2022-12-01T08:33:41;29.48;;;16.85;;
48623;SDS011;34422;45.802;16.114;2022-12-01T08:36:08;27.85;;;17.55;;
48623;SDS011;34422;45.802;16.114;2022-12-01T08:38:35;30.20;;;18.17;;
48623;SDS011;34422;45.802;16.114;2022-12-01T08:41:08;26.92;;;15.15;;
48623;SDS011;34422;45.802;16.114;2022-12-01T08:43:35;42.50;;;22.52;;
48623;SDS011;34422;45.802;16.114;2022-12-01T08:46:07;35.28;;;19.63;;
48623;SDS011;34422;45.802;16.114;2022-12-01T08:48:34;25.85;;;16.70;;
48623;SDS011;34422;45.802;16.114;2022-12-01T08:51:05;27.73;;;14.02;;
48623;SDS011;34422;45.802;16.114;2022-12-01T08:53:35;26.02;;;15.65;;
48623;SDS011;34422;45.802;16.114;2022-12-01T08:56:15;30.42;;;17.80;;
48623;SDS011;34422;45.802;16.114;2022-12-01T08:58:44;27.75;;;18.25;;
48623;SDS011;34422;45.802;16.114;2022-12-01T09:01:12;28.17;;;17.50;;
48623;SDS011;34422;45.802;16.114;2022-12-01T09:03:40;27.73;;;17.80;;
48623;SDS011;34422;45.802;16.114;2022-12-01T09:11:08;28.48;;;16.95;;
48623;SDS011;34422;45.802;16.114;2022-12-01T09:13:38;27.75;;;17.08;;
48623;SDS011;34422;45.802;16.114;2022-12-01T09:16:06;34.13;;;20.13;;
48623;SDS011;34422;45.802;16.114;2022-12-01T09:18:36;37.28;;;22.42;;
48623;SDS011;34422;45.802;16.114;2022-12-01T09:21:10;35.13;;;20.15;;
48623;SDS011;34422;45.802;16.114;2022-12-01T09:23:39;29.33;;;17.23;;
48623;SDS011;34422;45.802;16.114;2022-12-01T09:26:06;28.95;;;16.27;;
48623;SDS011;34422;45.802;16.114;2022-12-01T09:28:34;37.47;;;20.50;;
48623;SDS011;34422;45.802;16.114;2022-12-01T09:31:03;33.58;;;19.08;;
48623;SDS011;34422;45.802;16.114;2022-12-01T09:33:31;31.67;;;18.80;;
48623;SDS011;34422;45.802;16.114;2022-12-01T09:35:59;44.65;;;24.65;;
48623;SDS011;34422;45.802;16.114;2022-12-01T09:38:27;34.08;;;20.05;;
48623;SDS011;34422;45.802;16.114;2022-12-01T09:40:55;37.40;;;20.85;;
48623;SDS011;34422;45.802;16.114;2022-12-01T09:43:23;36.03;;;19.33;;
48623;SDS011;34422;45.802;16.114;2022-12-01T09:45:54;34.13;;;19.23;;
48623;SDS011;34422;45.802;16.114;2022-12-01T09:48:30;44.17;;;25.02;;
48623;SDS011;34422;45.802;16.114;2022-12-01T09:51:17;31.80;;;18.38;;
48623;SDS011;34422;45.802;16.114;2022-12-01T09:53:50;36.80;;;21.10;;
48623;SDS011;34422;45.802;16.114;2022-12-01T09:56:21;34.00;;;18.63;;
48623;SDS011;34422;45.802;16.114;2022-12-01T09:58:59;30.92;;;19.00;;
48623;SDS011;34422;45.802;16.114;2022-12-01T10:01:37;34.20;;;18.55;;
48623;SDS011;34422;45.802;16.114;2022-12-01T10:04:08;30.48;;;18.35;;
48623;SDS011;34422;45.802;16.114;2022-12-01T10:07:00;34.67;;;18.90;;
48623;SDS011;34422;45.802;16.114;2022-12-01T10:12:18;33.33;;;18.70;;
48623;SDS011;34422;45.802;16.114;2022-12-01T10:14:48;30.27;;;16.95;;
48623;SDS011;34422;45.802;16.114;2022-12-01T10:22:47;50.05;;;27.75;;
48623;SDS011;34422;45.802;16.114;2022-12-01T10:25:22;35.42;;;19.60;;
48623;SDS011;34422;45.802;16.114;2022-12-01T10:30:39;40.67;;;22.83;;
48623;SDS011;34422;45.802;16.114;2022-12-01T10:35:51;38.05;;;20.55;;
48623;SDS011;34422;45.802;16.114;2022-12-01T10:38:26;44.80;;;25.30;;
48623;SDS011;34422;45.802;16.114;2022-12-01T10:40:56;38.50;;;21.33;;
48623;SDS011;34422;45.802;16.114;2022-12-01T10:43:40;31.47;;;18.00;;
48623;SDS011;34422;45.802;16.114;2022-12-01T10:48:57;30.90;;;17.58;;
48623;SDS011;34422;45.802;16.114;2022-12-01T10:51:25;31.27;;;18.25;;
48623;SDS011;34422;45.802;16.114;2022-12-01T10:53:56;33.85;;;19.02;;
48623;SDS011;34422;45.802;16.114;2022-12-01T10:56:25;30.88;;;18.95;;
48623;SDS011;34422;45.802;16.114;2022-12-01T10:58:54;35.58;;;19.52;;
48623;SDS011;34422;45.802;16.114;2022-12-01T11:01:25;37.22;;;21.25;;
48623;SDS011;34422;45.802;16.114;2022-12-01T11:04:02;41.55;;;23.13;;
48623;SDS011;34422;45.802;16.114;2022-12-01T11:06:30;35.15;;;20.25;;
48623;SDS011;34422;45.802;16.114;2022-12-01T11:09:02;32.38;;;19.48;;
48623;SDS011;34422;45.802;16.114;2022-12-01T11:11:38;40.58;;;22.02;;
48623;SDS011;34422;45.802;16.114;2022-12-01T11:14:15;35.95;;;20.80;;
48623;SDS011;34422;45.802;16.114;2022-12-01T11:16:45;34.10;;;19.73;;
48623;SDS011;34422;45.802;16.114;2022-12-01T11:21:52;36.15;;;21.20;;
48623;SDS011;34422;45.802;16.114;2022-12-01T11:27:12;34.50;;;21.30;;
48623;SDS011;34422;45.802;16.114;2022-12-01T11:29:40;33.08;;;20.15;;
48623;SDS011;34422;45.802;16.114;2022-12-01T11:32:29;34.42;;;20.00;;
48623;SDS011;34422;45.802;16.114;2022-12-01T11:37:44;33.83;;;20.08;;
48623;SDS011;34422;45.802;16.114;2022-12-01T11:42:56;38.72;;;21.05;;
48623;SDS011;34422;45.802;16.114;2022-12-01T11:45:28;37.08;;;19.45;;
48623;SDS011;34422;45.802;16.114;2022-12-01T11:50:43;33.65;;;19.30;;
48623;SDS011;34422;45.802;16.114;2022-12-01T11:53:43;29.85;;;18.15;;
48623;SDS011;34422;45.802;16.114;2022-12-01T11:58:47;31.48;;;18.80;;
48623;SDS011;34422;45.802;16.114;2022-12-01T12:07:18;30.27;;;18.17;;
48623;SDS011;34422;45.802;16.114;2022-12-01T12:18:29;32.55;;;20.35;;
48623;SDS011;34422;45.802;16.114;2022-12-01T12:21:19;32.70;;;19.50;;
48623;SDS011;34422;45.802;16.114;2022-12-01T12:38:24;36.33;;;21.55;;
48623;SDS011;34422;45.802;16.114;2022-12-01T12:44:04;36.70;;;21.45;;
48623;SDS011;34422;45.802;16.114;2022-12-01T12:52:02;35.25;;;19.90;;
48623;SDS011;34422;45.802;16.114;2022-12-01T12:54:44;38.58;;;21.92;;
48623;SDS011;34422;45.802;16.114;2022-12-01T12:57:30;34.72;;;20.75;;
48623;SDS011;34422;45.802;16.114;2022-12-01T13:00:47;40.70;;;22.25;;
48623;SDS011;34422;45.802;16.114;2022-12-01T13:05:37;33.72;;;20.23;;
48623;SDS011;34422;45.802;16.114;2022-12-01T13:08:12;33.38;;;19.30;;
48623;SDS011;34422;45.802;16.114;2022-12-01T13:13:27;32.40;;;19.15;;
48623;SDS011;34422;45.802;16.114;2022-12-01T13:15:59;34.97;;;19.88;;
48623;SDS011;34422;45.802;16.114;2022-12-01T13:21:03;34.55;;;20.23;;
48623;SDS011;34422;45.802;16.114;2022-12-01T13:23:31;36.20;;;21.48;;
48623;SDS011;34422;45.802;16.114;2022-12-01T13:26:02;33.95;;;20.13;;
48623;SDS011;34422;45.802;16.114;2022-12-01T13:28:34;37.63;;;20.98;;
48623;SDS011;34422;45.802;16.114;2022-12-01T13:31:07;37.65;;;20.85;;
48623;SDS011;34422;45.802;16.114;2022-12-01T13:36:26;37.58;;;20.88;;
48623;SDS011;34422;45.802;16.114;2022-12-01T13:38:59;33.95;;;19.88;;
48623;SDS011;34422;45.802;16.114;2022-12-01T13:44:05;35.10;;;20.60;;
48623;SDS011;34422;45.802;16.114;2022-12-01T13:55:20;34.67;;;19.42;;
48623;SDS011;34422;45.802;16.114;2022-12-01T14:10:58;36.88;;;21.42;;
48623;SDS011;34422;45.802;16.114;2022-12-01T14:13:27;36.83;;;20.70;;
48623;SDS011;34422;45.802;16.114;2022-12-01T14:15:57;37.45;;;19.70;;
48623;SDS011;34422;45.802;16.114;2022-12-01T14:20:56;34.63;;;20.02;;
48623;SDS011;34422;45.802;16.114;2022-12-01T14:23:25;38.85;;;21.83;;
48623;SDS011;34422;45.802;16.114;2022-12-01T14:34:01;35.53;;;19.50;;
48623;SDS011;34422;45.802;16.114;2022-12-01T14:36:35;34.53;;;20.50;;
48623;SDS011;34422;45.802;16.114;2022-12-01T14:39:10;38.38;;;20.60;;
48623;SDS011;34422;45.802;16.114;2022-12-01T14:47:18;38.90;;;22.45;;
48623;SDS011;34422;45.802;16.114;2022-12-01T14:49:49;40.03;;;21.45;;
48623;SDS011;34422;45.802;16.114;2022-12-01T14:54:55;38.40;;;22.23;;
48623;SDS011;34422;45.802;16.114;2022-12-01T14:57:27;44.40;;;23.80;;
48623;SDS011;34422;45.802;16.114;2022-12-01T15:00:06;43.35;;;23.63;;
48623;SDS011;34422;45.802;16.114;2022-12-01T15:02:47;41.88;;;23.55;;
48623;SDS011;34422;45.802;16.114;2022-12-01T15:05:19;44.08;;;23.70;;
48623;SDS011;34422;45.802;16.114;2022-12-01T15:07:49;45.60;;;24.70;;
48623;SDS011;34422;45.802;16.114;2022-12-01T15:10:19;43.67;;;24.05;;
48623;SDS011;34422;45.802;16.114;2022-12-01T15:12:46;46.28;;;24.23;;
48623;SDS011;34422;45.802;16.114;2022-12-01T15:17:43;43.95;;;24.13;;
48623;SDS011;34422;45.802;16.114;2022-12-01T15:20:26;45.05;;;25.25;;
48623;SDS011;34422;45.802;16.114;2022-12-01T15:22:58;43.65;;;24.38;;
48623;SDS011;34422;45.802;16.114;2022-12-01T15:25:30;45.03;;;23.73;;
48623;SDS011;34422;45.802;16.114;2022-12-01T15:28:14;52.22;;;25.95;;
48623;SDS011;34422;45.802;16.114;2022-12-01T15:30:44;45.03;;;23.20;;
48623;SDS011;34422;45.802;16.114;2022-12-01T15:33:18;40.77;;;22.53;;
48623;SDS011;34422;45.802;16.114;2022-12-01T15:35:48;45.22;;;23.95;;
48623;SDS011;34422;45.802;16.114;2022-12-01T15:38:16;42.25;;;22.63;;
48623;SDS011;34422;45.802;16.114;2022-12-01T15:40:47;40.50;;;22.67;;
48623;SDS011;34422;45.802;16.114;2022-12-01T15:43:18;39.38;;;21.35;;
48623;SDS011;34422;45.802;16.114;2022-12-01T15:45:48;40.88;;;22.50;;
48623;SDS011;34422;45.802;16.114;2022-12-01T15:48:26;40.42;;;22.52;;
48623;SDS011;34422;45.802;16.114;2022-12-01T15:51:38;42.67;;;22.52;;
48623;SDS011;34422;45.802;16.114;2022-12-01T15:53:54;38.15;;;19.75;;
48623;SDS011;34422;45.802;16.114;2022-12-01T15:56:27;39.60;;;21.48;;
48623;SDS011;34422;45.802;16.114;2022-12-01T15:59:06;35.47;;;20.15;;
48623;SDS011;34422;45.802;16.114;2022-12-01T16:01:40;42.08;;;20.90;;
48623;SDS011;34422;45.802;16.114;2022-12-01T16:04:16;35.40;;;20.27;;
48623;SDS011;34422;45.802;16.114;2022-12-01T16:06:58;36.30;;;20.50;;
48623;SDS011;34422;45.802;16.114;2022-12-01T16:09:36;38.53;;;21.35;;
48623;SDS011;34422;45.802;16.114;2022-12-01T16:14:35;38.05;;;20.20;;
48623;SDS011;34422;45.802;16.114;2022-12-01T16:17:02;39.53;;;20.55;;
48623;SDS011;34422;45.802;16.114;2022-12-01T16:19:30;38.17;;;20.75;;
48623;SDS011;34422;45.802;16.114;2022-12-01T16:24:53;40.67;;;22.38;;
48623;SDS011;34422;45.802;16.114;2022-12-01T16:27:21;42.42;;;20.77;;
48623;SDS011;34422;45.802;16.114;2022-12-01T16:29:51;41.25;;;20.88;;
48623;SDS011;34422;45.802;16.114;2022-12-01T16:34:51;37.95;;;20.40;;
48623;SDS011;34422;45.802;16.114;2022-12-01T16:37:19;38.70;;;22.17;;
48623;SDS011;34422;45.802;16.114;2022-12-01T16:39:47;41.80;;;22.02;;
48623;SDS011;34422;45.802;16.114;2022-12-01T16:42:15;40.30;;;21.67;;
48623;SDS011;34422;45.802;16.114;2022-12-01T16:44:46;43.15;;;22.60;;
48623;SDS011;34422;45.802;16.114;2022-12-01T16:47:15;39.88;;;22.10;;
48623;SDS011;34422;45.802;16.114;2022-12-01T16:49:44;38.23;;;21.73;;
48623;SDS011;34422;45.802;16.114;2022-12-01T16:52:11;43.72;;;22.30;;
48623;SDS011;34422;45.802;16.114;2022-12-01T16:54:38;38.15;;;21.52;;
48623;SDS011;34422;45.802;16.114;2022-12-01T16:57:05;43.03;;;23.50;;
48623;SDS011;34422;45.802;16.114;2022-12-01T16:59:32;42.20;;;23.48;;
48623;SDS011;34422;45.802;16.114;2022-12-01T17:01:58;44.75;;;24.17;;
48623;SDS011;34422;45.802;16.114;2022-12-01T17:04:26;41.65;;;22.77;;
48623;SDS011;34422;45.802;16.114;2022-12-01T17:06:53;43.53;;;23.60;;
48623;SDS011;34422;45.802;16.114;2022-12-01T17:09:20;43.63;;;22.55;;
48623;SDS011;34422;45.802;16.114;2022-12-01T17:11:48;45.88;;;24.25;;
48623;SDS011;34422;45.802;16.114;2022-12-01T17:14:14;52.22;;;26.08;;
48623;SDS011;34422;45.802;16.114;2022-12-01T17:16:41;50.22;;;23.30;;
48623;SDS011;34422;45.802;16.114;2022-12-01T17:19:08;42.40;;;22.75;;
48623;SDS011;34422;45.802;16.114;2022-12-01T17:21:35;45.90;;;24.23;;
48623;SDS011;34422;45.802;16.114;2022-12-01T17:24:02;45.72;;;24.35;;
48623;SDS011;34422;45.802;16.114;2022-12-01T17:26:29;50.95;;;27.25;;
48623;SDS011;34422;45.802;16.114;2022-12-01T17:28:56;49.08;;;26.88;;